Impacts TAF Board INFO
FOR SITUATIONAL AWARENESS. NOT TO BE USED FOR FLIGHT PLANNING PURPOSES.
IDs:

KDHN - Dothan Rgnl, AL, US

Issued at 0533 UTC 16 Aug 2018
Updated at 1024 UTC 16 Aug 2018
Potential Impact None Slight Moderate High
Time0953Z 16/11Z 16/12Z 16/13Z 16/14Z 16/15Z 16/16Z 16/17Z 16/18Z 16/19Z 16/20Z 16/21Z 16/22Z 16/23Z>>
Type OBS PRVL
  [TEMP]  
PRVL PRVL PRVL PRVL PRVL PRVL PRVL PRVL PRVL PRVL PRVL PRVL
VIS 5 6
  [3]  
6 >6 >6 >6 >6 >6 >6 >6 >6 >6 >6 >6
CIG -- --
  [--]  
-- -- -- -- -- 40 40 40 40 40 40 40
Cover CLR SCT
  [SCT]  
SCT SCT SCT SCT SCT BKN BKN BKN BKN BKN BKN BKN
FltCat MVFR VFR
  [MVFR]  
VFR VFR VFR VFR VFR VFR VFR VFR VFR VFR VFR VFR
WX BR BR
  [BR]  
BR -- -- -- -- VCTS VCTS VCTS VCTS VCTS VCTS VCTS
WDir VRB VRB
[VRB]
VRB 170 170 170 170 200 200 200 200 200 200 200
WSpd 0 0
  [0]  
0 5 5 5 5 10 10 10 10 10 10 10
WGst -- --
  [--]  
-- -- -- -- -- -- -- -- -- -- -- --

Raw TAF
KDHN 160533Z 1606/1706 00000KT 6SM BR SCT003
  TEMPO 1608/1612 3SM BR
  FM161300 17005KT P6SM SCT040
  FM161700 20010KT P6SM VCTS BKN040CB
  FM170000 18007KT P6SM BKN040


Raw METAR
KDHN 160953Z AUTO 00000KT 5SM BR CLR 24/23 A3014 RMK AO2 SLP200 T02390228
KDHN 160853Z AUTO 15003KT 5SM BR CLR 23/22 A3013 RMK AO2 SLP197 T02330222 53001
KDHN 160753Z AUTO 13003KT 6SM BR CLR 24/22 A3012 RMK AO2 SLP192 T02390222

METAR Board
Radar Display
Forecast Discussion

FOR SITUATIONAL AWARENESS. NOT TO BE USED FOR FLIGHT PLANNING PURPOSES.